Enter the Airport ICAO Code

Search by Airport or City

Current Weather

LGAV | Athens International Airport (Eleftherios Venizelos Airport)

Athens, Greece

Last Update 36 Minutes Ago

Sky with Few Clouds

Temperature of 11 ºC

Light Winds from West

Temperature

11 ºC

Dew Point Temperature

09 ºC

Relative Humidity

87.52 %

Wind Direction

West (250º, Without Significant Variations)

Wind Velocity

2 km/h (01 kt)

Gusts

None

Visibility

Greater than 10 Kilometers

Sea Level Pressure

1026 hPa (Hectopascals)

Layers of Clouds

5% to 30% of Sky Covered from 549 mts (1800 ft) Above Ground Level.

METAR LGAV 160650Z 25001KT 9999 FEW018 11/09 Q1026 NOSIG

Weather Forecast

LGAV | Athens International Airport (Eleftherios Venizelos Airport)

Athens, Greece

Forecast valid for the next 23 Hours

From now on it is expected:

Sky with Few Clouds

Light to Moderate Winds from SouthWest

Maximum Temperature

No Data

Minimum Temperature

No Data

TAF LGAV 160500Z 1606/1706 23008KT 9999 FEW030 PROB30 1606/1608 5000 BR SCT008 PROB30 1703/1706 5000 BR SCT008